sensor_id;sensor_type;location;lat;lon;timestamp;P1;durP1;ratioP1;P2;durP2;ratioP2
23594;SDS011;11975;47.674;9.472;2022-08-14T00:02:00;17.50;;;16.40;;
23594;SDS011;11975;47.674;9.472;2022-08-14T00:04:27;16.10;;;15.20;;
23594;SDS011;11975;47.674;9.472;2022-08-14T00:06:53;16.80;;;15.85;;
23594;SDS011;11975;47.674;9.472;2022-08-14T00:09:19;16.30;;;15.40;;
23594;SDS011;11975;47.674;9.472;2022-08-14T00:11:45;17.05;;;16.05;;
23594;SDS011;11975;47.674;9.472;2022-08-14T00:14:11;16.60;;;15.70;;
23594;SDS011;11975;47.674;9.472;2022-08-14T00:16:37;16.63;;;15.73;;
23594;SDS011;11975;47.674;9.472;2022-08-14T00:19:03;17.83;;;16.83;;
23594;SDS011;11975;47.674;9.472;2022-08-14T00:21:29;18.63;;;17.57;;
23594;SDS011;11975;47.674;9.472;2022-08-14T00:23:55;18.60;;;17.58;;
23594;SDS011;11975;47.674;9.472;2022-08-14T00:26:22;20.80;;;17.27;;
23594;SDS011;11975;47.674;9.472;2022-08-14T00:28:49;17.95;;;16.95;;
23594;SDS011;11975;47.674;9.472;2022-08-14T00:31:16;17.85;;;16.83;;
23594;SDS011;11975;47.674;9.472;2022-08-14T00:33:42;18.40;;;17.38;;
23594;SDS011;11975;47.674;9.472;2022-08-14T00:36:08;18.73;;;17.67;;
23594;SDS011;11975;47.674;9.472;2022-08-14T00:38:34;22.10;;;20.87;;
23594;SDS011;11975;47.674;9.472;2022-08-14T00:41:03;20.55;;;19.35;;
23594;SDS011;11975;47.674;9.472;2022-08-14T00:43:30;21.35;;;20.15;;
23594;SDS011;11975;47.674;9.472;2022-08-14T00:45:56;22.27;;;21.05;;
23594;SDS011;11975;47.674;9.472;2022-08-14T00:48:22;24.42;;;23.00;;
23594;SDS011;11975;47.674;9.472;2022-08-14T00:50:48;24.23;;;22.85;;
23594;SDS011;11975;47.674;9.472;2022-08-14T00:53:14;25.90;;;24.40;;
23594;SDS011;11975;47.674;9.472;2022-08-14T00:55:41;24.95;;;23.55;;
23594;SDS011;11975;47.674;9.472;2022-08-14T00:58:07;25.23;;;23.80;;
23594;SDS011;11975;47.674;9.472;2022-08-14T01:00:51;23.98;;;22.58;;
23594;SDS011;11975;47.674;9.472;2022-08-14T01:03:18;27.02;;;25.42;;
23594;SDS011;11975;47.674;9.472;2022-08-14T01:05:45;27.58;;;26.02;;
23594;SDS011;11975;47.674;9.472;2022-08-14T01:08:18;30.35;;;28.60;;
23594;SDS011;11975;47.674;9.472;2022-08-14T01:10:46;28.80;;;27.17;;
23594;SDS011;11975;47.674;9.472;2022-08-14T01:13:22;25.88;;;24.42;;
23594;SDS011;11975;47.674;9.472;2022-08-14T01:15:51;24.92;;;23.52;;
23594;SDS011;11975;47.674;9.472;2022-08-14T01:18:19;27.80;;;23.75;;
23594;SDS011;11975;47.674;9.472;2022-08-14T01:21:06;27.00;;;25.48;;
23594;SDS011;11975;47.674;9.472;2022-08-14T01:23:34;26.20;;;24.70;;
23594;SDS011;11975;47.674;9.472;2022-08-14T01:26:03;25.83;;;24.38;;
23594;SDS011;11975;47.674;9.472;2022-08-14T01:28:29;25.92;;;24.48;;
23594;SDS011;11975;47.674;9.472;2022-08-14T01:30:56;28.08;;;26.30;;
23594;SDS011;11975;47.674;9.472;2022-08-14T01:33:23;24.38;;;22.95;;
23594;SDS011;11975;47.674;9.472;2022-08-14T01:35:54;23.45;;;22.10;;
23594;SDS011;11975;47.674;9.472;2022-08-14T01:38:26;24.83;;;23.42;;
23594;SDS011;11975;47.674;9.472;2022-08-14T01:40:56;27.17;;;25.65;;
23594;SDS011;11975;47.674;9.472;2022-08-14T01:43:22;27.00;;;25.50;;
23594;SDS011;11975;47.674;9.472;2022-08-14T01:45:48;27.15;;;25.60;;
23594;SDS011;11975;47.674;9.472;2022-08-14T01:48:17;26.92;;;25.42;;
23594;SDS011;11975;47.674;9.472;2022-08-14T01:50:44;27.73;;;26.17;;
23594;SDS011;11975;47.674;9.472;2022-08-14T01:53:10;27.02;;;25.50;;
23594;SDS011;11975;47.674;9.472;2022-08-14T01:55:36;26.00;;;24.50;;
23594;SDS011;11975;47.674;9.472;2022-08-14T01:58:03;27.45;;;25.90;;
23594;SDS011;11975;47.674;9.472;2022-08-14T02:00:29;28.83;;;27.17;;
23594;SDS011;11975;47.674;9.472;2022-08-14T02:02:55;31.08;;;29.23;;
23594;SDS011;11975;47.674;9.472;2022-08-14T02:05:25;36.13;;;34.08;;
23594;SDS011;11975;47.674;9.472;2022-08-14T02:07:55;32.15;;;30.10;;
23594;SDS011;11975;47.674;9.472;2022-08-14T02:10:21;27.38;;;25.83;;
23594;SDS011;11975;47.674;9.472;2022-08-14T02:12:47;24.75;;;23.35;;
23594;SDS011;11975;47.674;9.472;2022-08-14T02:15:13;26.73;;;25.23;;
23594;SDS011;11975;47.674;9.472;2022-08-14T02:17:47;25.88;;;24.42;;
23594;SDS011;11975;47.674;9.472;2022-08-14T02:20:13;26.92;;;25.40;;
23594;SDS011;11975;47.674;9.472;2022-08-14T02:22:39;29.25;;;27.60;;
23594;SDS011;11975;47.674;9.472;2022-08-14T02:25:05;31.27;;;29.40;;
23594;SDS011;11975;47.674;9.472;2022-08-14T02:27:31;30.35;;;28.60;;
23594;SDS011;11975;47.674;9.472;2022-08-14T02:29:57;26.88;;;25.33;;
23594;SDS011;11975;47.674;9.472;2022-08-14T02:32:23;29.30;;;27.65;;
23594;SDS011;11975;47.674;9.472;2022-08-14T02:34:49;25.17;;;23.77;;
23594;SDS011;11975;47.674;9.472;2022-08-14T02:37:15;25.67;;;24.23;;
23594;SDS011;11975;47.674;9.472;2022-08-14T02:39:44;24.23;;;22.88;;
23594;SDS011;11975;47.674;9.472;2022-08-14T02:44:38;25.52;;;24.08;;
23594;SDS011;11975;47.674;9.472;2022-08-14T02:47:07;27.42;;;25.88;;
23594;SDS011;11975;47.674;9.472;2022-08-14T02:49:34;36.97;;;34.85;;
23594;SDS011;11975;47.674;9.472;2022-08-14T02:52:00;41.80;;;39.28;;
23594;SDS011;11975;47.674;9.472;2022-08-14T02:54:26;40.42;;;38.10;;
23594;SDS011;11975;47.674;9.472;2022-08-14T02:56:56;41.95;;;39.50;;
23594;SDS011;11975;47.674;9.472;2022-08-14T02:59:23;46.65;;;43.97;;
23594;SDS011;11975;47.674;9.472;2022-08-14T03:01:50;47.65;;;44.90;;
23594;SDS011;11975;47.674;9.472;2022-08-14T03:04:18;36.58;;;34.33;;
23594;SDS011;11975;47.674;9.472;2022-08-14T03:06:45;35.05;;;32.90;;
23594;SDS011;11975;47.674;9.472;2022-08-14T03:09:13;42.20;;;39.80;;
23594;SDS011;11975;47.674;9.472;2022-08-14T03:11:39;52.08;;;49.05;;
23594;SDS011;11975;47.674;9.472;2022-08-14T03:14:07;51.95;;;48.83;;
23594;SDS011;11975;47.674;9.472;2022-08-14T03:16:36;45.60;;;42.97;;
23594;SDS011;11975;47.674;9.472;2022-08-14T03:19:04;37.88;;;35.70;;
23594;SDS011;11975;47.674;9.472;2022-08-14T03:21:31;31.25;;;29.48;;
23594;SDS011;11975;47.674;9.472;2022-08-14T03:23:58;30.85;;;28.88;;
23594;SDS011;11975;47.674;9.472;2022-08-14T03:26:45;27.58;;;26.05;;
23594;SDS011;11975;47.674;9.472;2022-08-14T03:29:13;32.47;;;30.63;;
23594;SDS011;11975;47.674;9.472;2022-08-14T03:31:40;41.65;;;39.28;;
23594;SDS011;11975;47.674;9.472;2022-08-14T03:34:07;31.05;;;29.25;;
23594;SDS011;11975;47.674;9.472;2022-08-14T03:36:35;30.10;;;28.38;;
23594;SDS011;11975;47.674;9.472;2022-08-14T03:39:03;49.63;;;46.60;;
23594;SDS011;11975;47.674;9.472;2022-08-14T03:41:30;42.15;;;39.60;;
23594;SDS011;11975;47.674;9.472;2022-08-14T03:43:57;43.33;;;40.83;;
23594;SDS011;11975;47.674;9.472;2022-08-14T03:46:25;47.47;;;44.55;;
23594;SDS011;11975;47.674;9.472;2022-08-14T03:48:54;44.47;;;41.92;;
23594;SDS011;11975;47.674;9.472;2022-08-14T03:51:22;34.63;;;32.63;;
23594;SDS011;11975;47.674;9.472;2022-08-14T03:53:54;30.80;;;28.90;;
23594;SDS011;11975;47.674;9.472;2022-08-14T03:56:21;29.92;;;28.23;;
23594;SDS011;11975;47.674;9.472;2022-08-14T03:58:48;42.08;;;39.63;;
23594;SDS011;11975;47.674;9.472;2022-08-14T04:01:17;42.78;;;40.30;;
23594;SDS011;11975;47.674;9.472;2022-08-14T04:03:46;51.13;;;48.17;;
23594;SDS011;11975;47.674;9.472;2022-08-14T04:06:13;39.22;;;37.00;;
23594;SDS011;11975;47.674;9.472;2022-08-14T04:08:39;41.83;;;39.42;;
23594;SDS011;11975;47.674;9.472;2022-08-14T04:11:06;34.03;;;32.10;;
23594;SDS011;11975;47.674;9.472;2022-08-14T04:13:33;34.17;;;32.22;;
23594;SDS011;11975;47.674;9.472;2022-08-14T04:16:01;33.92;;;32.00;;
23594;SDS011;11975;47.674;9.472;2022-08-14T04:18:29;39.85;;;37.53;;
23594;SDS011;11975;47.674;9.472;2022-08-14T04:20:55;33.40;;;31.40;;
23594;SDS011;11975;47.674;9.472;2022-08-14T04:25:49;31.13;;;29.33;;
23594;SDS011;11975;47.674;9.472;2022-08-14T04:28:18;31.52;;;29.73;;
23594;SDS011;11975;47.674;9.472;2022-08-14T04:30:44;34.83;;;32.63;;
23594;SDS011;11975;47.674;9.472;2022-08-14T04:33:10;30.08;;;28.38;;
23594;SDS011;11975;47.674;9.472;2022-08-14T04:35:37;35.40;;;33.40;;
23594;SDS011;11975;47.674;9.472;2022-08-14T04:38:06;35.75;;;33.75;;
23594;SDS011;11975;47.674;9.472;2022-08-14T04:40:51;37.40;;;35.25;;
23594;SDS011;11975;47.674;9.472;2022-08-14T04:43:36;40.03;;;37.72;;
23594;SDS011;11975;47.674;9.472;2022-08-14T04:46:10;38.85;;;36.65;;
23594;SDS011;11975;47.674;9.472;2022-08-14T04:48:37;44.45;;;41.85;;
23594;SDS011;11975;47.674;9.472;2022-08-14T04:51:04;34.20;;;32.20;;
23594;SDS011;11975;47.674;9.472;2022-08-14T04:53:32;24.23;;;22.83;;
23594;SDS011;11975;47.674;9.472;2022-08-14T04:55:59;21.25;;;20.05;;
23594;SDS011;11975;47.674;9.472;2022-08-14T04:58:27;21.40;;;20.20;;
23594;SDS011;11975;47.674;9.472;2022-08-14T05:00:55;20.70;;;19.52;;
23594;SDS011;11975;47.674;9.472;2022-08-14T05:03:24;19.55;;;18.45;;
23594;SDS011;11975;47.674;9.472;2022-08-14T05:05:55;19.52;;;18.27;;
23594;SDS011;11975;47.674;9.472;2022-08-14T05:08:22;18.92;;;17.83;;
23594;SDS011;11975;47.674;9.472;2022-08-14T05:10:50;18.83;;;17.65;;
23594;SDS011;11975;47.674;9.472;2022-08-14T05:13:18;17.80;;;16.65;;
23594;SDS011;11975;47.674;9.472;2022-08-14T05:15:45;17.77;;;16.77;;
23594;SDS011;11975;47.674;9.472;2022-08-14T05:18:12;16.67;;;15.77;;
23594;SDS011;11975;47.674;9.472;2022-08-14T05:20:40;17.67;;;16.67;;
23594;SDS011;11975;47.674;9.472;2022-08-14T05:23:08;17.75;;;16.70;;
23594;SDS011;11975;47.674;9.472;2022-08-14T05:25:35;17.02;;;16.13;;
23594;SDS011;11975;47.674;9.472;2022-08-14T05:28:09;17.60;;;16.50;;
23594;SDS011;11975;47.674;9.472;2022-08-14T05:30:36;16.80;;;15.85;;
23594;SDS011;11975;47.674;9.472;2022-08-14T05:33:04;17.98;;;16.30;;
23594;SDS011;11975;47.674;9.472;2022-08-14T05:35:30;16.65;;;15.75;;
23594;SDS011;11975;47.674;9.472;2022-08-14T05:37:58;16.60;;;15.70;;
23594;SDS011;11975;47.674;9.472;2022-08-14T05:40:24;16.58;;;15.68;;
23594;SDS011;11975;47.674;9.472;2022-08-14T05:42:51;16.27;;;15.38;;
23594;SDS011;11975;47.674;9.472;2022-08-14T05:45:17;17.17;;;16.25;;
23594;SDS011;11975;47.674;9.472;2022-08-14T05:47:44;17.48;;;16.48;;
23594;SDS011;11975;47.674;9.472;2022-08-14T05:50:11;16.50;;;15.60;;
23594;SDS011;11975;47.674;9.472;2022-08-14T05:52:38;16.67;;;15.77;;
23594;SDS011;11975;47.674;9.472;2022-08-14T05:55:04;15.85;;;14.95;;
23594;SDS011;11975;47.674;9.472;2022-08-14T05:57:32;16.15;;;15.25;;
23594;SDS011;11975;47.674;9.472;2022-08-14T05:59:58;17.05;;;16.15;;
23594;SDS011;11975;47.674;9.472;2022-08-14T06:02:24;15.50;;;14.68;;
23594;SDS011;11975;47.674;9.472;2022-08-14T06:04:50;16.45;;;15.55;;
23594;SDS011;11975;47.674;9.472;2022-08-14T06:07:16;16.90;;;16.00;;
23594;SDS011;11975;47.674;9.472;2022-08-14T06:09:42;16.08;;;15.18;;
23594;SDS011;11975;47.674;9.472;2022-08-14T06:12:09;15.82;;;14.93;;
23594;SDS011;11975;47.674;9.472;2022-08-14T06:14:35;16.13;;;15.23;;
23594;SDS011;11975;47.674;9.472;2022-08-14T06:17:02;16.45;;;15.55;;
23594;SDS011;11975;47.674;9.472;2022-08-14T06:19:28;15.90;;;15.00;;
23594;SDS011;11975;47.674;9.472;2022-08-14T06:21:54;15.90;;;15.00;;
23594;SDS011;11975;47.674;9.472;2022-08-14T06:24:20;16.45;;;15.55;;
23594;SDS011;11975;47.674;9.472;2022-08-14T06:26:46;16.30;;;15.40;;
23594;SDS011;11975;47.674;9.472;2022-08-14T06:29:12;15.50;;;14.60;;
23594;SDS011;11975;47.674;9.472;2022-08-14T06:31:38;15.35;;;14.55;;
23594;SDS011;11975;47.674;9.472;2022-08-14T06:34:04;15.38;;;14.57;;
23594;SDS011;11975;47.674;9.472;2022-08-14T06:36:30;15.20;;;14.40;;
23594;SDS011;11975;47.674;9.472;2022-08-14T06:38:55;15.52;;;14.63;;
23594;SDS011;11975;47.674;9.472;2022-08-14T06:41:21;15.13;;;14.32;;
23594;SDS011;11975;47.674;9.472;2022-08-14T06:43:48;14.77;;;13.98;;
23594;SDS011;11975;47.674;9.472;2022-08-14T06:46:14;15.55;;;14.65;;
23594;SDS011;11975;47.674;9.472;2022-08-14T06:48:41;15.05;;;14.25;;
23594;SDS011;11975;47.674;9.472;2022-08-14T06:51:07;14.65;;;13.85;;
23594;SDS011;11975;47.674;9.472;2022-08-14T06:53:33;14.82;;;13.95;;
23594;SDS011;11975;47.674;9.472;2022-08-14T06:55:58;14.85;;;14.05;;
23594;SDS011;11975;47.674;9.472;2022-08-14T06:58:25;15.60;;;14.70;;
23594;SDS011;11975;47.674;9.472;2022-08-14T07:00:51;14.55;;;13.75;;
23594;SDS011;11975;47.674;9.472;2022-08-14T07:03:35;14.57;;;13.77;;
23594;SDS011;11975;47.674;9.472;2022-08-14T07:06:20;14.90;;;14.00;;
23594;SDS011;11975;47.674;9.472;2022-08-14T07:08:46;13.90;;;13.13;;
23594;SDS011;11975;47.674;9.472;2022-08-14T07:11:12;14.20;;;13.40;;
23594;SDS011;11975;47.674;9.472;2022-08-14T07:13:38;14.23;;;13.45;;
23594;SDS011;11975;47.674;9.472;2022-08-14T07:16:04;14.57;;;13.77;;
23594;SDS011;11975;47.674;9.472;2022-08-14T07:18:31;14.73;;;13.93;;
23594;SDS011;11975;47.674;9.472;2022-08-14T07:20:59;15.55;;;14.65;;
23594;SDS011;11975;47.674;9.472;2022-08-14T07:25:52;16.37;;;15.47;;
23594;SDS011;11975;47.674;9.472;2022-08-14T07:28:23;15.70;;;14.82;;
23594;SDS011;11975;47.674;9.472;2022-08-14T07:30:52;14.98;;;14.18;;
23594;SDS011;11975;47.674;9.472;2022-08-14T07:33:23;14.70;;;13.90;;
23594;SDS011;11975;47.674;9.472;2022-08-14T07:35:50;14.35;;;13.55;;
23594;SDS011;11975;47.674;9.472;2022-08-14T07:38:18;14.95;;;14.15;;
23594;SDS011;11975;47.674;9.472;2022-08-14T07:40:45;15.40;;;14.50;;
23594;SDS011;11975;47.674;9.472;2022-08-14T07:43:12;14.80;;;14.00;;
23594;SDS011;11975;47.674;9.472;2022-08-14T07:45:39;14.10;;;13.30;;
23594;SDS011;11975;47.674;9.472;2022-08-14T07:50:31;15.03;;;14.23;;
23594;SDS011;11975;47.674;9.472;2022-08-14T07:52:58;16.58;;;15.43;;
23594;SDS011;11975;47.674;9.472;2022-08-14T07:55:27;13.98;;;13.23;;
23594;SDS011;11975;47.674;9.472;2022-08-14T07:57:53;14.60;;;13.80;;
23594;SDS011;11975;47.674;9.472;2022-08-14T08:00:20;14.57;;;13.77;;
23594;SDS011;11975;47.674;9.472;2022-08-14T08:02:49;14.40;;;13.60;;
23594;SDS011;11975;47.674;9.472;2022-08-14T08:05:17;14.52;;;13.73;;
23594;SDS011;11975;47.674;9.472;2022-08-14T08:07:44;14.35;;;13.55;;
23594;SDS011;11975;47.674;9.472;2022-08-14T08:10:17;15.05;;;14.23;;
23594;SDS011;11975;47.674;9.472;2022-08-14T08:15:29;15.20;;;14.18;;
23594;SDS011;11975;47.674;9.472;2022-08-14T08:18:02;14.43;;;13.63;;
23594;SDS011;11975;47.674;9.472;2022-08-14T08:20:30;14.25;;;13.25;;
23594;SDS011;11975;47.674;9.472;2022-08-14T08:22:57;13.52;;;12.73;;
23594;SDS011;11975;47.674;9.472;2022-08-14T08:25:24;13.93;;;13.15;;
23594;SDS011;11975;47.674;9.472;2022-08-14T08:27:55;12.20;;;11.55;;
23594;SDS011;11975;47.674;9.472;2022-08-14T08:30:29;13.40;;;12.70;;
23594;SDS011;11975;47.674;9.472;2022-08-14T08:32:57;14.05;;;13.25;;
23594;SDS011;11975;47.674;9.472;2022-08-14T08:35:26;13.25;;;12.45;;
23594;SDS011;11975;47.674;9.472;2022-08-14T08:37:53;14.02;;;13.23;;
23594;SDS011;11975;47.674;9.472;2022-08-14T08:40:27;13.23;;;12.52;;
23594;SDS011;11975;47.674;9.472;2022-08-14T08:43:03;13.73;;;13.00;;
23594;SDS011;11975;47.674;9.472;2022-08-14T08:45:31;14.18;;;13.38;;
23594;SDS011;11975;47.674;9.472;2022-08-14T08:47:58;14.23;;;13.43;;
23594;SDS011;11975;47.674;9.472;2022-08-14T08:50:29;13.50;;;12.80;;
23594;SDS011;11975;47.674;9.472;2022-08-14T08:52:59;14.57;;;13.77;;
23594;SDS011;11975;47.674;9.472;2022-08-14T08:58:00;14.45;;;13.65;;
23594;SDS011;11975;47.674;9.472;2022-08-14T09:00:29;13.80;;;13.07;;
23594;SDS011;11975;47.674;9.472;2022-08-14T09:02:59;14.35;;;13.55;;
23594;SDS011;11975;47.674;9.472;2022-08-14T09:05:31;13.88;;;13.07;;
23594;SDS011;11975;47.674;9.472;2022-08-14T09:10:44;13.38;;;12.68;;
23594;SDS011;11975;47.674;9.472;2022-08-14T09:13:11;12.23;;;11.52;;
23594;SDS011;11975;47.674;9.472;2022-08-14T09:15:38;12.73;;;12.02;;
23594;SDS011;11975;47.674;9.472;2022-08-14T09:18:05;12.40;;;11.73;;
23594;SDS011;11975;47.674;9.472;2022-08-14T09:20:31;13.43;;;12.73;;
23594;SDS011;11975;47.674;9.472;2022-08-14T09:22:58;14.27;;;13.38;;
23594;SDS011;11975;47.674;9.472;2022-08-14T09:25:24;13.90;;;13.10;;
23594;SDS011;11975;47.674;9.472;2022-08-14T09:27:50;12.68;;;11.98;;
23594;SDS011;11975;47.674;9.472;2022-08-14T09:30:16;13.13;;;12.43;;
23594;SDS011;11975;47.674;9.472;2022-08-14T09:44:32;12.77;;;12.07;;
23594;SDS011;11975;47.674;9.472;2022-08-14T09:47:04;12.88;;;12.18;;
23594;SDS011;11975;47.674;9.472;2022-08-14T09:49:33;13.27;;;12.57;;
23594;SDS011;11975;47.674;9.472;2022-08-14T09:52:08;12.85;;;12.15;;
23594;SDS011;11975;47.674;9.472;2022-08-14T09:54:36;13.82;;;13.00;;
23594;SDS011;11975;47.674;9.472;2022-08-14T09:57:08;13.35;;;12.65;;
23594;SDS011;11975;47.674;9.472;2022-08-14T09:59:39;13.15;;;12.45;;
23594;SDS011;11975;47.674;9.472;2022-08-14T10:02:20;13.60;;;12.85;;
23594;SDS011;11975;47.674;9.472;2022-08-14T10:05:10;13.25;;;12.55;;
23594;SDS011;11975;47.674;9.472;2022-08-14T10:10:25;13.13;;;12.43;;
23594;SDS011;11975;47.674;9.472;2022-08-14T10:12:53;13.73;;;12.93;;
23594;SDS011;11975;47.674;9.472;2022-08-14T10:15:24;13.43;;;12.73;;
23594;SDS011;11975;47.674;9.472;2022-08-14T10:18:10;13.35;;;12.65;;
23594;SDS011;11975;47.674;9.472;2022-08-14T10:20:41;12.98;;;12.27;;
23594;SDS011;11975;47.674;9.472;2022-08-14T10:23:13;13.88;;;13.13;;
23594;SDS011;11975;47.674;9.472;2022-08-14T10:25:42;13.43;;;12.73;;
23594;SDS011;11975;47.674;9.472;2022-08-14T10:28:10;14.20;;;13.40;;
23594;SDS011;11975;47.674;9.472;2022-08-14T10:30:41;13.70;;;12.93;;
23594;SDS011;11975;47.674;9.472;2022-08-14T10:33:08;14.15;;;13.35;;
23594;SDS011;11975;47.674;9.472;2022-08-14T10:35:41;13.87;;;13.07;;
23594;SDS011;11975;47.674;9.472;2022-08-14T10:38:07;13.80;;;13.00;;
23594;SDS011;11975;47.674;9.472;2022-08-14T10:40:35;13.20;;;12.50;;
23594;SDS011;11975;47.674;9.472;2022-08-14T10:43:01;14.00;;;13.20;;
23594;SDS011;11975;47.674;9.472;2022-08-14T10:45:31;13.27;;;12.57;;
23594;SDS011;11975;47.674;9.472;2022-08-14T10:47:58;14.05;;;13.25;;
23594;SDS011;11975;47.674;9.472;2022-08-14T10:52:56;12.88;;;12.18;;
23594;SDS011;11975;47.674;9.472;2022-08-14T10:55:30;13.57;;;12.85;;
23594;SDS011;11975;47.674;9.472;2022-08-14T10:57:57;14.32;;;13.52;;
23594;SDS011;11975;47.674;9.472;2022-08-14T11:00:24;14.30;;;13.48;;
23594;SDS011;11975;47.674;9.472;2022-08-14T11:02:59;13.13;;;12.43;;
23594;SDS011;11975;47.674;9.472;2022-08-14T11:05:37;14.38;;;13.57;;
23594;SDS011;11975;47.674;9.472;2022-08-14T11:08:06;14.10;;;13.30;;
23594;SDS011;11975;47.674;9.472;2022-08-14T11:10:40;14.05;;;13.25;;
23594;SDS011;11975;47.674;9.472;2022-08-14T11:13:07;13.88;;;13.15;;
23594;SDS011;11975;47.674;9.472;2022-08-14T11:15:34;14.00;;;13.20;;
23594;SDS011;11975;47.674;9.472;2022-08-14T11:18:00;13.57;;;12.88;;
23594;SDS011;11975;47.674;9.472;2022-08-14T11:20:27;14.15;;;13.35;;
23594;SDS011;11975;47.674;9.472;2022-08-14T11:22:55;13.20;;;12.50;;
23594;SDS011;11975;47.674;9.472;2022-08-14T11:25:23;13.52;;;12.82;;
23594;SDS011;11975;47.674;9.472;2022-08-14T11:27:57;13.55;;;12.80;;
23594;SDS011;11975;47.674;9.472;2022-08-14T11:30:25;13.85;;;13.05;;
23594;SDS011;11975;47.674;9.472;2022-08-14T11:32:52;13.95;;;13.18;;
23594;SDS011;11975;47.674;9.472;2022-08-14T11:35:21;13.57;;;12.77;;
23594;SDS011;11975;47.674;9.472;2022-08-14T11:37:52;13.48;;;12.73;;
23594;SDS011;11975;47.674;9.472;2022-08-14T11:40:20;13.80;;;13.10;;
23594;SDS011;11975;47.674;9.472;2022-08-14T11:42:48;12.27;;;11.57;;
23594;SDS011;11975;47.674;9.472;2022-08-14T11:45:21;14.00;;;13.20;;
23594;SDS011;11975;47.674;9.472;2022-08-14T11:47:48;14.13;;;13.32;;
23594;SDS011;11975;47.674;9.472;2022-08-14T11:50:15;13.20;;;12.40;;
23594;SDS011;11975;47.674;9.472;2022-08-14T11:52:45;13.50;;;12.77;;
23594;SDS011;11975;47.674;9.472;2022-08-14T11:55:12;12.93;;;12.23;;
23594;SDS011;11975;47.674;9.472;2022-08-14T11:57:39;13.45;;;12.75;;
23594;SDS011;11975;47.674;9.472;2022-08-14T12:00:06;12.95;;;12.25;;
23594;SDS011;11975;47.674;9.472;2022-08-14T12:02:34;12.75;;;12.05;;
23594;SDS011;11975;47.674;9.472;2022-08-14T12:05:02;12.93;;;12.23;;
23594;SDS011;11975;47.674;9.472;2022-08-14T12:09:55;12.75;;;12.05;;
23594;SDS011;11975;47.674;9.472;2022-08-14T12:12:25;13.38;;;12.68;;
23594;SDS011;11975;47.674;9.472;2022-08-14T12:14:54;12.98;;;12.27;;
23594;SDS011;11975;47.674;9.472;2022-08-14T12:17:22;13.23;;;12.52;;
23594;SDS011;11975;47.674;9.472;2022-08-14T12:19:50;13.50;;;12.80;;
23594;SDS011;11975;47.674;9.472;2022-08-14T12:22:19;13.32;;;12.52;;
23594;SDS011;11975;47.674;9.472;2022-08-14T12:24:57;12.90;;;12.20;;
23594;SDS011;11975;47.674;9.472;2022-08-14T12:27:33;13.73;;;12.97;;
23594;SDS011;11975;47.674;9.472;2022-08-14T12:30:02;13.50;;;12.60;;
23594;SDS011;11975;47.674;9.472;2022-08-14T12:32:38;13.32;;;12.52;;
23594;SDS011;11975;47.674;9.472;2022-08-14T12:37:31;13.77;;;13.05;;
23594;SDS011;11975;47.674;9.472;2022-08-14T12:40:13;13.40;;;12.70;;
23594;SDS011;11975;47.674;9.472;2022-08-14T12:42:40;14.07;;;13.27;;
23594;SDS011;11975;47.674;9.472;2022-08-14T12:45:06;14.20;;;13.38;;
23594;SDS011;11975;47.674;9.472;2022-08-14T12:47:32;14.48;;;13.48;;
23594;SDS011;11975;47.674;9.472;2022-08-14T12:49:58;14.10;;;13.30;;
23594;SDS011;11975;47.674;9.472;2022-08-14T12:55:02;14.43;;;13.60;;
23594;SDS011;11975;47.674;9.472;2022-08-14T12:57:33;14.88;;;13.98;;
23594;SDS011;11975;47.674;9.472;2022-08-14T13:00:05;14.85;;;14.05;;
23594;SDS011;11975;47.674;9.472;2022-08-14T13:02:35;13.45;;;12.75;;
23594;SDS011;11975;47.674;9.472;2022-08-14T13:05:03;12.90;;;12.20;;
23594;SDS011;11975;47.674;9.472;2022-08-14T13:07:30;12.55;;;11.85;;
23594;SDS011;11975;47.674;9.472;2022-08-14T13:09:56;12.73;;;12.03;;
23594;SDS011;11975;47.674;9.472;2022-08-14T13:12:23;14.45;;;13.55;;
23594;SDS011;11975;47.674;9.472;2022-08-14T13:14:53;15.32;;;14.25;;
23594;SDS011;11975;47.674;9.472;2022-08-14T13:17:22;16.02;;;14.88;;
23594;SDS011;11975;47.674;9.472;2022-08-14T13:19:49;13.20;;;12.50;;
23594;SDS011;11975;47.674;9.472;2022-08-14T13:22:21;13.18;;;12.48;;
23594;SDS011;11975;47.674;9.472;2022-08-14T13:24:51;13.30;;;12.57;;
23594;SDS011;11975;47.674;9.472;2022-08-14T13:27:19;11.93;;;11.32;;
23594;SDS011;11975;47.674;9.472;2022-08-14T13:29:47;12.60;;;11.90;;
23594;SDS011;11975;47.674;9.472;2022-08-14T13:32:18;12.88;;;12.18;;
23594;SDS011;11975;47.674;9.472;2022-08-14T13:34:46;14.05;;;13.25;;
23594;SDS011;11975;47.674;9.472;2022-08-14T13:37:13;12.68;;;11.98;;
23594;SDS011;11975;47.674;9.472;2022-08-14T13:39:40;13.27;;;12.55;;
23594;SDS011;11975;47.674;9.472;2022-08-14T13:42:12;12.70;;;12.00;;
23594;SDS011;11975;47.674;9.472;2022-08-14T13:44:42;12.77;;;12.07;;
23594;SDS011;11975;47.674;9.472;2022-08-14T13:47:10;12.57;;;11.88;;
23594;SDS011;11975;47.674;9.472;2022-08-14T13:49:36;12.50;;;11.80;;
23594;SDS011;11975;47.674;9.472;2022-08-14T13:52:03;12.23;;;11.52;;
23594;SDS011;11975;47.674;9.472;2022-08-14T13:54:29;12.95;;;12.25;;
23594;SDS011;11975;47.674;9.472;2022-08-14T13:56:58;12.40;;;11.70;;
23594;SDS011;11975;47.674;9.472;2022-08-14T13:59:27;12.90;;;12.20;;
23594;SDS011;11975;47.674;9.472;2022-08-14T14:01:54;13.85;;;13.00;;
23594;SDS011;11975;47.674;9.472;2022-08-14T14:04:22;12.10;;;11.38;;
23594;SDS011;11975;47.674;9.472;2022-08-14T14:06:48;13.70;;;12.90;;
23594;SDS011;11975;47.674;9.472;2022-08-14T14:09:19;12.02;;;11.40;;
23594;SDS011;11975;47.674;9.472;2022-08-14T14:11:49;12.73;;;12.02;;
23594;SDS011;11975;47.674;9.472;2022-08-14T14:14:15;12.80;;;12.05;;
23594;SDS011;11975;47.674;9.472;2022-08-14T14:16:44;13.10;;;12.40;;
23594;SDS011;11975;47.674;9.472;2022-08-14T14:19:11;12.60;;;11.90;;
23594;SDS011;11975;47.674;9.472;2022-08-14T14:21:37;12.35;;;11.65;;
23594;SDS011;11975;47.674;9.472;2022-08-14T14:24:03;12.48;;;11.77;;
23594;SDS011;11975;47.674;9.472;2022-08-14T14:26:30;12.30;;;11.60;;
23594;SDS011;11975;47.674;9.472;2022-08-14T14:28:56;12.07;;;11.48;;
23594;SDS011;11975;47.674;9.472;2022-08-14T14:31:24;12.80;;;12.10;;
23594;SDS011;11975;47.674;9.472;2022-08-14T14:33:59;13.10;;;12.40;;
23594;SDS011;11975;47.674;9.472;2022-08-14T14:36:27;12.73;;;12.02;;
23594;SDS011;11975;47.674;9.472;2022-08-14T14:38:55;12.82;;;12.13;;
23594;SDS011;11975;47.674;9.472;2022-08-14T14:41:24;11.35;;;10.75;;
23594;SDS011;11975;47.674;9.472;2022-08-14T14:43:51;12.70;;;12.00;;
23594;SDS011;11975;47.674;9.472;2022-08-14T14:46:18;13.30;;;12.60;;
23594;SDS011;11975;47.674;9.472;2022-08-14T14:48:45;11.98;;;11.30;;
23594;SDS011;11975;47.674;9.472;2022-08-14T14:51:12;13.23;;;12.52;;
23594;SDS011;11975;47.674;9.472;2022-08-14T14:53:39;12.48;;;11.77;;
23594;SDS011;11975;47.674;9.472;2022-08-14T14:56:06;13.02;;;12.32;;
23594;SDS011;11975;47.674;9.472;2022-08-14T14:58:36;12.55;;;11.85;;
23594;SDS011;11975;47.674;9.472;2022-08-14T15:01:03;12.02;;;11.38;;
23594;SDS011;11975;47.674;9.472;2022-08-14T15:03:32;12.15;;;11.48;;
23594;SDS011;11975;47.674;9.472;2022-08-14T15:05:58;12.75;;;12.05;;
23594;SDS011;11975;47.674;9.472;2022-08-14T15:08:24;12.65;;;11.95;;
23594;SDS011;11975;47.674;9.472;2022-08-14T15:10:50;12.55;;;11.85;;